Time;durP1;ratioP1;P1;durP2;ratioP2;P2;SDS_P1;SDS_P2;PMS_P1;PMS_P2;Temp;Humidity;BMP_temperature;BMP_pressure;BME280_temperature;BME280_humidity;BME280_pressure;Samples;Min_cycle;Max_cycle;Signal;HPM_P1;HPM_P2
2022/03/04 00:02:06;;;;;;;46.80;21.40;;;;;;;-1.59;77.06;98484.02;105892;1277;25333;-74
2022/03/04 00:04:37;;;;;;;46.00;22.30;;;;;;;-1.59;76.86;98485.42;106290;1277;25403;-73
2022/03/04 00:07:04;;;;;;;49.40;24.70;;;;;;;-1.60;76.72;98483.75;106077;1277;138297;-74
2022/03/04 00:09:31;;;;;;;48.00;24.00;;;;;;;-1.59;76.49;98482.34;106048;1277;22780;-74
2022/03/04 00:12:02;;;;;;;49.20;23.60;;;;;;;-1.54;76.65;98487.38;105683;1281;138522;-74
2022/03/04 00:14:28;;;;;;;45.60;21.60;;;;;;;-1.48;76.64;98490.16;106191;1277;25254;-74
2022/03/04 00:16:54;;;;;;;44.90;19.80;;;;;;;-1.47;76.71;98485.89;105958;1278;22566;-74
2022/03/04 00:19:21;;;;;;;47.10;22.00;;;;;;;-1.47;76.27;98483.81;105687;1278;138031;-73
2022/03/04 00:21:50;;;;;;;40.10;19.20;;;;;;;-1.49;76.28;98481.46;106031;1278;22852;-73
2022/03/04 00:24:18;;;;;;;44.10;20.10;;;;;;;-1.50;76.27;98480.79;105833;1277;137938;-73
2022/03/04 00:26:45;;;;;;;39.00;18.60;;;;;;;-1.52;76.21;98480.70;106047;1277;23026;-73
2022/03/04 00:29:12;;;;;;;42.30;19.70;;;;;;;-1.51;76.01;98479.77;105839;1277;138343;-73
2022/03/04 00:31:39;;;;;;;35.70;17.40;;;;;;;-1.50;76.17;98480.42;105874;1281;22557;-73
2022/03/04 00:34:07;;;;;;;39.90;18.40;;;;;;;-1.52;76.24;98480.36;105882;1277;22567;-73
2022/03/04 00:36:36;;;;;;;41.40;17.30;;;;;;;-1.53;76.09;98474.97;105887;1278;138102;-73
2022/03/04 00:39:07;;;;;;;;;;;;;;;-1.55;75.94;98479.41;106084;1277;24500;-73
2022/03/04 00:41:33;;;;;;;29.70;13.80;;;;;;;-1.56;75.78;98474.93;105900;1277;124794;-73
2022/03/04 00:44:00;;;;;;;31.70;15.60;;;;;;;-1.57;75.77;98475.07;105989;1278;24418;-73
2022/03/04 00:46:26;;;;;;;28.80;14.50;;;;;;;-1.59;75.65;98473.89;106147;1278;25665;-73
2022/03/04 00:48:53;;;;;;;29.30;14.30;;;;;;;-1.62;75.58;98468.98;105737;1277;138267;-73
2022/03/04 00:51:19;;;;;;;36.10;17.10;;;;;;;-1.63;75.33;98467.02;106000;1280;24386;-73
2022/03/04 00:53:46;;;;;;;33.40;15.00;;;;;;;-1.62;75.19;98467.27;105915;1277;138642;-73
2022/03/04 00:56:26;;;;;;;25.40;12.10;;;;;;;-1.59;75.48;98466.56;105993;1277;22618;-73
2022/03/04 00:58:53;;;;;;;22.30;12.70;;;;;;;-1.57;75.50;98464.34;105763;1278;31579;-73
2022/03/04 01:01:19;;;;;;;26.20;12.10;;;;;;;-1.56;75.53;98461.76;105737;1277;137872;-73
2022/03/04 01:03:46;;;;;;;27.60;13.20;;;;;;;-1.56;75.24;98463.35;106025;1277;23036;-73
2022/03/04 01:06:12;;;;;;;28.70;12.90;;;;;;;-1.56;75.30;98462.35;105991;1277;138795;-73
2022/03/04 01:08:38;;;;;;;33.20;14.40;;;;;;;-1.57;74.98;98463.65;106075;1278;24491;-74
2022/03/04 01:11:04;;;;;;;30.00;14.10;;;;;;;-1.57;74.97;98459.35;106021;1277;138443;-74
2022/03/04 01:13:31;;;;;;;31.00;13.90;;;;;;;-1.55;75.12;98458.29;105900;1278;22563;-74
2022/03/04 01:15:57;;;;;;;30.70;14.20;;;;;;;-1.54;75.22;98458.89;105948;1277;25424;-74
2022/03/04 01:18:23;;;;;;;24.30;12.60;;;;;;;-1.54;75.22;98454.98;105948;1277;138767;-74
2022/03/04 01:20:49;;;;;;;34.00;16.10;;;;;;;-1.54;75.55;98457.07;106008;1277;24262;-74
2022/03/04 01:23:16;;;;;;;30.50;14.00;;;;;;;-1.53;75.70;98456.31;105791;1278;138026;-74
2022/03/04 01:25:42;;;;;;;35.50;16.70;;;;;;;-1.54;75.43;98454.77;106047;1277;24234;-74
2022/03/04 01:28:09;;;;;;;30.70;15.50;;;;;;;-1.54;75.52;98452.80;105907;1277;25506;-74
2022/03/04 01:30:35;;;;;;;31.60;15.50;;;;;;;-1.50;75.61;98450.67;105842;1278;138200;-74
2022/03/04 01:33:01;;;;;;;31.20;13.90;;;;;;;-1.47;75.33;98453.30;105982;1277;22754;-74
2022/03/04 01:35:27;;;;;;;29.70;14.70;;;;;;;-1.45;75.24;98455.40;105565;1277;137934;-74
2022/03/04 01:37:53;;;;;;;34.70;15.90;;;;;;;-1.45;75.19;98456.48;105997;1281;22659;-74
2022/03/04 01:40:20;;;;;;;27.60;14.70;;;;;;;-1.45;75.61;98455.27;105718;1278;24541;-73
2022/03/04 01:42:46;;;;;;;32.30;15.70;;;;;;;-1.46;75.49;98460.83;105464;1278;138135;-73
2022/03/04 01:45:13;;;;;;;32.00;15.90;;;;;;;-1.45;75.33;98454.20;106045;1278;24434;-73
2022/03/04 01:47:45;;;;;;;36.40;17.60;;;;;;;-1.44;75.36;98454.64;106128;1277;138485;-73
2022/03/04 01:50:12;;;;;;;36.50;17.50;;;;;;;-1.44;75.31;98451.73;105898;1277;31755;-73
2022/03/04 01:52:38;;;;;;;35.90;18.00;;;;;;;-1.41;75.34;98452.52;105664;1277;22547;-73
2022/03/04 01:55:08;;;;;;;39.50;18.40;;;;;;;-1.38;75.37;98451.42;105879;1277;138515;-73
2022/03/04 01:57:35;;;;;;;34.70;17.20;;;;;;;-1.32;75.22;98451.02;106099;1277;25356;-73
2022/03/04 02:00:05;;;;;;;34.70;17.30;;;;;;;-1.25;75.40;98446.32;105954;1277;138707;-72
2022/03/04 02:02:39;;;;;;;36.00;17.10;;;;;;;-1.18;75.33;98441.78;106073;1277;23929;-74
2022/03/04 02:05:06;;;;;;;32.50;17.20;;;;;;;-1.13;75.40;98436.95;106066;1277;138153;-74
2022/03/04 02:07:33;;;;;;;34.90;16.40;;;;;;;-1.07;75.47;98438.07;106292;1277;25487;-74
2022/03/04 02:10:00;;;;;;;34.90;16.60;;;;;;;-1.04;74.97;98448.42;106027;1276;23282;-72
2022/03/04 02:12:27;;;;;;;36.50;18.20;;;;;;;-1.04;74.80;98445.05;105950;1276;138490;-72
2022/03/04 02:14:53;;;;;;;35.10;16.30;;;;;;;-1.04;74.92;98440.45;106085;1277;23078;-73
2022/03/04 02:17:20;;;;;;;36.90;19.00;;;;;;;-1.05;74.61;98441.04;105753;1278;138129;-73
2022/03/04 02:19:54;;;;;;;39.60;18.80;;;;;;;-1.05;74.60;98442.28;105964;1277;22658;-72
2022/03/04 02:22:20;;;;;;;31.10;16.70;;;;;;;-1.03;74.86;98441.02;105991;1278;24272;-73
2022/03/04 02:24:47;;;;;;;40.00;19.80;;;;;;;-1.03;74.78;98443.47;105930;1277;137893;-73
2022/03/04 02:27:13;;;;;;;37.40;18.20;;;;;;;-1.01;74.63;98450.68;106664;1277;25432;-73
2022/03/04 02:29:39;;;;;;;38.40;18.40;;;;;;;-0.98;74.29;98449.84;105999;1277;138521;-73
2022/03/04 02:32:06;;;;;;;35.30;18.30;;;;;;;-0.97;74.33;98450.80;106210;1277;22556;-73
2022/03/04 02:34:32;;;;;;;40.80;19.20;;;;;;;-0.96;74.45;98450.67;106055;1278;23922;-73
2022/03/04 02:36:59;;;;;;;42.90;19.20;;;;;;;-0.94;74.31;98452.14;105913;1277;137924;-73
2022/03/04 02:39:25;;;;;;;38.00;17.50;;;;;;;-0.92;74.61;98451.42;106078;1277;22631;-73
2022/03/04 02:41:52;;;;;;;42.30;19.60;;;;;;;-0.92;74.47;98460.07;106300;1277;137925;-73
2022/03/04 02:44:18;;;;;;;40.30;20.10;;;;;;;-0.93;74.56;98457.75;105948;1277;23295;-73
2022/03/04 02:46:44;;;;;;;34.70;18.20;;;;;;;-0.95;74.53;98459.75;106320;1277;24287;-73
2022/03/04 02:49:12;;;;;;;39.80;18.90;;;;;;;-0.96;74.58;98460.89;105879;1278;137865;-73
2022/03/04 02:51:39;;;;;;;42.80;20.60;;;;;;;-0.99;74.58;98463.68;105953;1278;26070;-73
2022/03/04 02:54:05;;;;;;;41.80;20.40;;;;;;;-1.00;74.38;98462.38;106033;1277;138657;-73
2022/03/04 02:56:32;;;;;;;43.00;20.30;;;;;;;-1.00;74.26;98460.85;106278;1277;22572;-73
2022/03/04 02:58:58;;;;;;;41.30;20.60;;;;;;;-1.00;74.59;98462.34;106069;1277;22633;-73
2022/03/04 03:01:25;;;;;;;43.70;19.70;;;;;;;-0.98;74.53;98462.84;105856;1280;137913;-73
2022/03/04 03:03:51;;;;;;;42.30;20.30;;;;;;;-0.96;74.41;98461.77;106146;1277;25248;-73
2022/03/04 03:06:18;;;;;;;39.80;19.60;;;;;;;-0.94;74.69;98465.97;105932;1277;138419;-73
2022/03/04 03:08:45;;;;;;;39.50;19.50;;;;;;;-0.92;74.39;98464.59;106002;1277;22547;-72
2022/03/04 03:11:12;;;;;;;38.40;18.70;;;;;;;-0.93;74.24;98471.15;106075;1277;137898;-72
2022/03/04 03:13:38;;;;;;;37.60;18.30;;;;;;;-0.97;74.27;98468.41;106215;1277;24392;-73
2022/03/04 03:16:04;;;;;;;33.70;17.00;;;;;;;-0.98;74.19;98469.33;106322;1277;22587;-71
2022/03/04 03:18:31;;;;;;;41.40;19.60;;;;;;;-1.00;74.28;98471.80;105768;1277;138083;-72
2022/03/04 03:20:57;;;;;;;36.00;17.20;;;;;;;-1.00;74.47;98467.59;106309;1277;24305;-72
2022/03/04 03:23:23;;;;;;;32.30;17.00;;;;;;;-0.99;74.48;98465.98;105914;1277;138756;-72
2022/03/04 03:25:49;;;;;;;34.30;17.50;;;;;;;-0.96;74.11;98469.08;106220;1277;22583;-72
2022/03/04 03:28:15;;;;;;;34.20;16.30;;;;;;;-0.94;74.03;98468.52;105983;1277;22606;-72
2022/03/04 03:30:42;;;;;;;32.80;16.60;;;;;;;-0.93;73.92;98476.92;105826;1277;137739;-72
2022/03/04 03:33:08;;;;;;;34.60;16.40;;;;;;;-0.95;74.00;98471.61;106048;1277;22571;-72
2022/03/04 03:35:34;;;;;;;37.00;18.20;;;;;;;-0.94;74.14;98475.09;105944;1277;139283;-72
2022/03/04 03:38:00;;;;;;;32.00;16.60;;;;;;;-0.93;74.12;98476.46;106116;1277;22773;-72
2022/03/04 03:40:27;;;;;;;38.10;17.30;;;;;;;-0.95;74.23;98475.76;106263;1277;25266;-73
2022/03/04 03:42:53;;;;;;;32.60;17.80;;;;;;;-0.96;74.27;98473.46;106117;1277;137791;-73
2022/03/04 03:45:20;;;;;;;38.50;18.50;;;;;;;-0.96;73.89;98476.04;106241;1277;24224;-73
2022/03/04 03:47:46;;;;;;;35.60;17.90;;;;;;;-0.96;74.21;98474.27;105983;1277;138869;-72
2022/03/04 03:50:13;;;;;;;40.90;20.40;;;;;;;-0.94;74.24;98474.92;106080;1277;23366;-73
2022/03/04 03:52:40;;;;;;;41.50;19.20;;;;;;;-0.91;74.30;98475.48;106004;1277;24089;-74
2022/03/04 03:55:07;;;;;;;47.20;20.20;;;;;;;-0.89;74.16;98475.65;105844;1277;138039;-73
2022/03/04 03:57:33;;;;;;;44.00;21.00;;;;;;;-0.86;74.47;98479.88;106169;1277;22788;-74
2022/03/04 03:59:59;;;;;;;39.10;21.70;;;;;;;-0.84;74.27;98474.77;105975;1277;137800;-73
2022/03/04 04:02:26;;;;;;;40.50;20.20;;;;;;;-0.83;74.53;98477.27;106136;1277;22568;-72
2022/03/04 04:04:52;;;;;;;52.40;23.50;;;;;;;-0.82;74.54;98474.90;106147;1277;23918;-73
2022/03/04 04:07:18;;;;;;;51.60;22.60;;;;;;;-0.83;74.38;98474.63;106118;1277;137738;-73
2022/03/04 04:09:44;;;;;;;57.70;24.20;;;;;;;-0.86;74.32;98474.36;105995;1277;22607;-73
2022/03/04 04:12:11;;;;;;;57.80;24.30;;;;;;;-0.89;74.48;98475.79;105700;1280;137971;-74
2022/03/04 04:14:37;;;;;;;47.10;20.70;;;;;;;-0.92;74.53;98476.69;106021;1277;22749;-74
2022/03/04 04:17:03;;;;;;;38.20;17.70;;;;;;;-0.92;74.86;98480.23;105976;1277;138570;-71
2022/03/04 04:19:30;;;;;;;35.10;17.10;;;;;;;-0.93;75.01;98480.33;105920;1277;24621;-71
2022/03/04 04:21:56;;;;;;;34.40;17.00;;;;;;;-0.95;75.15;98479.67;106164;1277;22559;-72
2022/03/04 04:24:22;;;;;;;40.70;17.90;;;;;;;-0.97;75.43;98479.83;105891;1277;137917;-72
2022/03/04 04:26:49;;;;;;;41.20;17.60;;;;;;;-0.94;75.28;98487.92;106135;1277;22569;-72
2022/03/04 04:29:15;;;;;;;33.40;16.50;;;;;;;-0.92;75.42;98488.75;105827;1277;138481;-72
2022/03/04 04:31:41;;;;;;;35.90;16.70;;;;;;;-0.89;75.16;98491.17;106119;1277;22548;-72
2022/03/04 04:34:08;;;;;;;36.20;17.00;;;;;;;-0.89;75.20;98487.05;106237;1277;23227;-72
2022/03/04 04:36:35;;;;;;;36.60;17.90;;;;;;;-0.91;75.07;98490.30;106248;1275;137782;-73
2022/03/04 04:39:01;;;;;;;29.50;16.10;;;;;;;-0.90;74.97;98487.20;106043;1277;22848;-72
2022/03/04 04:41:28;;;;;;;30.80;15.90;;;;;;;-0.91;75.17;98489.59;105853;1277;138991;-72
2022/03/04 04:43:54;;;;;;;22.70;11.60;;;;;;;-0.93;75.44;98486.92;105929;1278;22714;-74
2022/03/04 04:46:20;;;;;;;27.80;13.60;;;;;;;-0.94;75.35;98488.70;105965;1277;25261;-74
2022/03/04 04:48:46;;;;;;;28.30;13.90;;;;;;;-0.98;75.66;98489.80;105677;1280;138908;-72
2022/03/04 04:51:13;;;;;;;26.30;12.80;;;;;;;-1.00;75.93;98488.27;105922;1277;22579;-74
2022/03/04 04:53:39;;;;;;;31.10;15.10;;;;;;;-1.04;75.93;98488.13;105979;1277;138095;-72
2022/03/04 04:56:05;;;;;;;31.90;16.70;;;;;;;-1.08;76.31;98490.75;105975;1278;22645;-72
2022/03/04 04:58:31;;;;;;;34.30;17.20;;;;;;;-1.11;76.36;98488.02;106160;1277;25357;-72
2022/03/04 05:00:58;;;;;;;34.90;16.80;;;;;;;-1.10;76.35;98489.92;105991;1277;139446;-74
2022/03/04 05:03:26;;;;;;;30.90;15.60;;;;;;;-1.09;76.66;98494.80;106173;1277;23536;-74
2022/03/04 05:05:53;;;;;;;32.00;17.00;;;;;;;-1.10;76.59;98495.23;105871;1277;138782;-72
2022/03/04 05:08:20;;;;;;;30.90;16.00;;;;;;;-1.11;76.93;98497.35;106010;1277;25317;-72
2022/03/04 05:10:47;;;;;;;35.20;16.60;;;;;;;-1.12;76.79;98501.67;106135;1277;24344;-71
2022/03/04 05:13:14;;;;;;;33.40;16.20;;;;;;;-1.12;76.99;98505.92;105816;1277;137676;-74
2022/03/04 05:15:41;;;;;;;42.40;19.20;;;;;;;-1.14;77.12;98505.80;106124;1277;22544;-72
2022/03/04 05:18:11;;;;;;;37.20;18.80;;;;;;;-1.13;77.53;98510.70;106009;1277;138415;-72
2022/03/04 05:20:37;;;;;;;32.10;16.00;;;;;;;-1.12;77.59;98510.40;105934;1277;22637;-72
2022/03/04 05:23:04;;;;;;;28.90;15.00;;;;;;;-1.11;77.85;98513.84;105842;1277;138784;-72
2022/03/04 05:25:31;;;;;;;33.90;16.30;;;;;;;-1.14;78.13;98514.34;106143;1277;25320;-72
2022/03/04 05:27:57;;;;;;;39.40;18.40;;;;;;;-1.17;78.48;98511.68;106117;1277;22633;-72
2022/03/04 05:30:23;;;;;;;35.80;17.40;;;;;;;-1.21;78.73;98515.85;105966;1277;138315;-72
2022/03/04 05:32:49;;;;;;;34.20;16.50;;;;;;;-1.24;79.22;98517.96;106016;1277;22932;-72
2022/03/04 05:35:16;;;;;;;37.30;18.70;;;;;;;-1.26;79.72;98521.41;105920;1277;138668;-72
2022/03/04 05:37:42;;;;;;;35.20;17.20;;;;;;;-1.29;79.92;98523.90;105836;1277;26490;-72
2022/03/04 05:40:09;;;;;;;39.40;19.60;;;;;;;-1.33;80.12;98522.14;106314;1277;24224;-72
2022/03/04 05:42:36;;;;;;;39.40;18.60;;;;;;;-1.35;80.37;98525.75;106020;1277;138238;-71
2022/03/04 05:45:04;;;;;;;37.00;17.10;;;;;;;-1.36;80.80;98530.27;105850;1277;24299;-72
2022/03/04 05:47:30;;;;;;;38.60;18.60;;;;;;;-1.38;81.35;98531.34;106106;1277;138893;-72
2022/03/04 05:49:57;;;;;;;42.60;18.10;;;;;;;-1.39;81.36;98528.98;106034;1277;23249;-72
2022/03/04 05:52:23;;;;;;;42.70;17.10;;;;;;;-1.39;81.62;98533.83;106077;1277;22553;-72
2022/03/04 05:54:49;;;;;;;42.40;20.60;;;;;;;-1.41;82.05;98530.26;105971;1277;138332;-72
2022/03/04 05:57:15;;;;;;;35.30;16.90;;;;;;;-1.40;82.01;98530.38;106069;1277;25252;-72
2022/03/04 05:59:41;;;;;;;33.50;16.70;;;;;;;-1.38;82.29;98526.27;105916;1278;138452;-74
2022/03/04 06:02:08;;;;;;;44.20;19.30;;;;;;;-1.37;82.40;98531.48;106187;1277;22580;-72
2022/03/04 06:04:34;;;;;;;37.20;16.20;;;;;;;-1.39;82.66;98538.96;106162;1277;22721;-72
2022/03/04 06:07:00;;;;;;;42.20;20.10;;;;;;;-1.41;82.98;98538.64;106057;1277;137765;-72
2022/03/04 06:09:29;;;;;;;40.20;19.80;;;;;;;-1.41;83.09;98542.04;106147;1277;24272;-72
2022/03/04 06:11:56;;;;;;;40.40;20.50;;;;;;;-1.42;83.27;98544.60;105996;1277;138427;-72
2022/03/04 06:14:22;;;;;;;43.40;20.60;;;;;;;-1.41;83.39;98545.95;106016;1277;22786;-72
2022/03/04 06:16:48;;;;;;;39.80;18.00;;;;;;;-1.39;83.67;98549.35;105949;1277;24363;-72
2022/03/04 06:19:14;;;;;;;49.60;22.50;;;;;;;-1.39;83.84;98556.10;106000;1276;137781;-72
2022/03/04 06:21:41;;;;;;;37.80;18.00;;;;;;;-1.38;84.00;98559.48;106099;1277;26617;-72
2022/03/04 06:24:07;;;;;;;45.80;20.10;;;;;;;-1.35;84.19;98563.14;105954;1277;138279;-72
2022/03/04 06:26:35;;;;;;;42.50;19.40;;;;;;;-1.34;84.50;98564.08;106077;1277;22573;-72
2022/03/04 06:29:01;;;;;;;47.90;22.60;;;;;;;-1.33;84.70;98567.39;106154;1277;23102;-72
2022/03/04 06:31:27;;;;;;;51.60;22.20;;;;;;;-1.29;84.45;98575.16;105763;1277;138055;-72
2022/03/04 06:33:54;;;;;;;48.00;23.30;;;;;;;-1.25;84.80;98574.30;105892;1277;24308;-72
2022/03/04 06:36:20;;;;;;;45.90;20.90;;;;;;;-1.20;84.75;98568.82;106045;1277;138029;-72
2022/03/04 06:38:47;;;;;;;45.50;21.80;;;;;;;-1.15;84.75;98571.80;106090;1277;22563;-72
2022/03/04 06:41:14;;;;;;;46.10;20.30;;;;;;;-1.12;84.42;98577.74;105687;1277;139365;-72
2022/03/04 06:43:42;;;;;;;54.10;24.10;;;;;;;-1.09;84.49;98577.77;105845;1277;25727;-72
2022/03/04 06:46:08;;;;;;;51.70;24.10;;;;;;;-1.06;84.41;98572.33;106082;1277;26561;-72
2022/03/04 06:48:35;;;;;;;50.50;23.30;;;;;;;-0.95;84.52;98575.93;105642;1277;138242;-72
2022/03/04 06:51:03;;;;;;;51.00;22.70;;;;;;;-0.87;84.37;98580.59;105943;1277;22560;-72
2022/03/04 06:53:29;;;;;;;44.20;20.80;;;;;;;-0.81;84.25;98582.70;106244;1277;138352;-72
2022/03/04 06:55:56;;;;;;;49.40;22.40;;;;;;;-0.76;83.97;98583.06;106663;1277;22701;-72
2022/03/04 06:58:22;;;;;;;59.40;25.70;;;;;;;-0.72;84.00;98586.90;106678;1277;22561;-72
2022/03/04 07:00:49;;;;;;;58.50;26.10;;;;;;;-0.67;83.75;98588.36;106354;1277;138579;-73
2022/03/04 07:03:15;;;;;;;62.70;28.60;;;;;;;-0.63;83.54;98589.98;106949;1277;22609;-73
2022/03/04 07:05:43;;;;;;;53.20;26.00;;;;;;;-0.55;83.67;98587.90;106939;1277;138356;-73
2022/03/04 07:08:13;;;;;;;57.00;25.90;;;;;;;-0.44;83.83;98589.92;106270;1277;25396;-74
2022/03/04 07:10:43;;;;;;;56.60;25.60;;;;;;;-0.38;83.77;98592.94;105945;1278;24186;-74
2022/03/04 07:13:11;;;;;;;57.60;27.10;;;;;;;-0.31;83.34;98591.89;105951;1277;137935;-74
2022/03/04 07:15:38;;;;;;;59.20;27.10;;;;;;;-0.27;83.40;98588.86;105908;1277;22695;-74
2022/03/04 07:18:05;;;;;;;61.00;27.30;;;;;;;-0.17;83.42;98592.43;106140;1277;138228;-73
2022/03/04 07:20:32;;;;;;;60.10;26.60;;;;;;;-0.06;83.24;98591.57;106516;1277;23138;-73
2022/03/04 07:22:58;;;;;;;55.60;24.40;;;;;;;0.04;82.68;98596.39;106626;1277;24303;-73
2022/03/04 07:25:25;;;;;;;48.40;23.20;;;;;;;0.09;82.60;98593.23;106025;1277;138350;-72
2022/03/04 07:27:52;;;;;;;57.70;25.30;;;;;;;0.13;82.35;98596.66;106129;1277;25355;-73
2022/03/04 07:30:18;;;;;;;60.40;26.90;;;;;;;0.11;81.93;98594.23;105857;1277;137571;-73
2022/03/04 07:32:46;;;;;;;59.20;28.20;;;;;;;0.12;82.31;98599.44;106276;1277;23642;-73
2022/03/04 07:35:13;;;;;;;56.10;26.60;;;;;;;0.15;82.23;98603.58;106139;1278;139790;-73
2022/03/04 07:37:41;;;;;;;59.30;27.40;;;;;;;0.19;82.19;98601.19;106468;1277;22563;-73
2022/03/04 07:40:13;;;;;;;54.90;23.80;;;;;;;0.24;81.90;98605.65;106334;1277;23406;-73
2022/03/04 07:42:40;;;;;;;54.10;24.60;;;;;;;0.26;81.60;98607.52;106261;1277;138657;-73
2022/03/04 07:45:08;;;;;;;59.50;24.60;;;;;;;0.28;81.59;98604.79;106302;1277;22563;-73
2022/03/04 07:47:36;;;;;;;49.70;25.10;;;;;;;0.29;81.38;98603.49;106187;1277;138281;-73
2022/03/04 07:50:08;;;;;;;65.30;28.40;;;;;;;0.29;81.34;98606.54;106279;1277;25268;-75
2022/03/04 07:52:34;;;;;;;68.70;30.10;;;;;;;0.31;81.31;98607.09;106191;1277;25624;-73
2022/03/04 07:55:04;;;;;;;57.30;26.10;;;;;;;0.37;81.59;98606.79;106136;1277;138286;-73
2022/03/04 07:57:30;;;;;;;58.10;26.50;;;;;;;0.48;81.92;98607.70;106255;1277;24299;-72
2022/03/04 07:59:57;;;;;;;58.60;28.10;;;;;;;0.59;81.71;98610.95;106344;1277;137692;-73
2022/03/04 08:02:23;;;;;;;52.30;25.80;;;;;;;0.67;81.47;98614.67;106305;1277;22571;-72
2022/03/04 08:04:50;;;;;;;48.60;22.40;;;;;;;0.69;80.84;98618.13;106115;1277;24280;-72
2022/03/04 08:07:17;;;;;;;52.90;24.90;;;;;;;0.67;80.40;98618.61;106137;1277;138096;-72
2022/03/04 08:09:44;;;;;;;47.60;21.90;;;;;;;0.67;80.00;98618.05;106458;1277;22572;-72
2022/03/04 08:12:11;;;;;;;49.00;20.60;;;;;;;0.63;79.50;98622.04;106147;1277;138128;-71
2022/03/04 08:14:38;;;;;;;47.40;23.20;;;;;;;0.56;79.60;98622.89;106185;1277;25420;-72
2022/03/04 08:17:04;;;;;;;45.90;22.30;;;;;;;0.54;79.83;98624.10;106495;1277;22595;-71
2022/03/04 08:19:33;;;;;;;48.10;21.70;;;;;;;0.57;80.15;98628.08;106070;1277;137449;-71
2022/03/04 08:22:01;;;;;;;48.10;20.90;;;;;;;0.59;79.87;98630.27;106116;1277;23381;-71
2022/03/04 08:24:35;;;;;;;48.10;21.70;;;;;;;0.55;79.79;98628.48;106349;1277;138824;-71
2022/03/04 08:27:04;;;;;;;42.50;20.00;;;;;;;0.58;79.85;98631.26;106274;1275;22614;-71
2022/03/04 08:29:30;;;;;;;44.10;20.20;;;;;;;0.61;79.53;98634.81;106288;1277;138564;-71
2022/03/04 08:31:57;;;;;;;44.00;21.90;;;;;;;0.65;79.81;98633.59;106077;1277;22564;-71
2022/03/04 08:34:23;;;;;;;50.00;20.70;;;;;;;0.73;79.88;98631.77;106156;1277;22561;-71
2022/03/04 08:36:49;;;;;;;50.10;23.00;;;;;;;0.83;80.16;98630.33;105999;1277;138203;-71
2022/03/04 08:39:17;;;;;;;48.10;21.80;;;;;;;0.96;79.88;98628.13;106107;1277;22591;-71
2022/03/04 08:41:43;;;;;;;38.00;17.20;;;;;;;1.09;80.01;98632.81;106488;1277;138693;-71
2022/03/04 08:44:10;;;;;;;46.30;20.40;;;;;;;1.17;78.52;98633.85;106299;1277;22566;-72
2022/03/04 08:46:36;;;;;;;47.40;20.70;;;;;;;1.18;77.94;98635.05;106677;1277;24226;-72
2022/03/04 08:49:03;;;;;;;37.40;17.40;;;;;;;1.14;77.55;98631.90;106129;1277;138277;-72
2022/03/04 08:51:29;;;;;;;38.00;17.20;;;;;;;1.09;77.45;98631.41;106057;1277;25403;-71
2022/03/04 09:12:36;;;;;;;40.60;20.70;;;;;;;1.62;76.16;98641.22;102678;1317;580245;-79
2022/03/04 09:15:07;;;;;;;32.80;15.70;;;;;;;1.75;75.27;98642.23;104320;1290;407351;-73
2022/03/04 09:17:34;;;;;;;37.40;17.30;;;;;;;1.72;74.46;98643.98;105094;1289;24515;-73
2022/03/04 09:20:01;;;;;;;41.50;18.80;;;;;;;1.63;74.80;98653.13;104955;1290;136726;-75
2022/03/04 09:22:28;;;;;;;40.80;20.20;;;;;;;1.53;75.06;98651.64;104983;1289;22645;-74
2022/03/04 09:24:54;;;;;;;31.30;14.60;;;;;;;1.47;75.51;98654.95;106036;1290;137033;-77
2022/03/04 09:27:20;;;;;;;41.60;18.30;;;;;;;1.44;75.15;98657.25;105547;1289;24246;-78
2022/03/04 09:29:47;;;;;;;35.10;16.70;;;;;;;1.46;75.71;98658.18;105259;1289;22720;-74
2022/03/04 09:32:13;;;;;;;36.40;17.50;;;;;;;1.45;74.94;98662.06;105347;1289;138056;-74
2022/03/04 09:34:40;;;;;;;36.10;17.50;;;;;;;1.43;75.11;98659.38;105209;1289;22614;-76
2022/03/04 09:37:06;;;;;;;37.00;16.50;;;;;;;1.50;75.81;98659.45;105250;1290;136985;-74
2022/03/04 09:39:33;;;;;;;41.60;20.00;;;;;;;1.65;76.09;98661.46;105060;1291;22579;-74
2022/03/04 09:42:00;;;;;;;37.40;16.60;;;;;;;1.80;75.77;98660.01;104889;1289;22729;-74
2022/03/04 09:44:27;;;;;;;37.00;16.90;;;;;;;1.90;75.28;98659.53;105070;1290;136988;-74
2022/03/04 09:46:59;;;;;;;37.50;18.90;;;;;;;2.00;74.77;98663.95;105285;1289;25392;-74
2022/03/04 09:49:35;;;;;;;40.30;16.90;;;;;;;2.10;74.74;98662.41;105704;1283;136876;-74
2022/03/04 09:52:03;;;;;;;37.50;17.10;;;;;;;2.10;73.66;98664.52;105850;1283;25285;-76
2022/03/04 09:54:31;;;;;;;33.80;16.60;;;;;;;2.07;72.96;98668.02;105596;1283;138593;-74
2022/03/04 09:56:59;;;;;;;34.10;15.10;;;;;;;2.08;72.91;98665.85;105685;1284;22569;-74
2022/03/04 09:59:25;;;;;;;37.60;17.30;;;;;;;2.05;72.66;98662.73;105576;1283;22612;-74
2022/03/04 10:01:56;;;;;;;41.80;18.70;;;;;;;2.09;73.16;98666.23;105758;1283;140162;-74
2022/03/04 10:04:28;;;;;;;37.80;14.00;;;;;;;2.14;73.06;98666.42;105796;1283;22744;-74
2022/03/04 10:06:55;;;;;;;34.30;16.70;;;;;;;2.13;71.92;98667.45;105636;1283;137204;-76
2022/03/04 10:09:41;;;;;;;38.20;16.60;;;;;;;2.08;71.97;98668.96;105948;1283;22614;-73
2022/03/04 10:12:22;;;;;;;37.10;15.50;;;;;;;2.07;71.80;98667.84;105480;1284;22618;-74
2022/03/04 10:15:05;;;;;;;34.60;16.20;;;;;;;2.12;71.77;98668.88;105241;1284;137690;-74
2022/03/04 10:17:34;;;;;;;37.20;14.40;;;;;;;2.18;70.95;98666.42;105796;1284;22700;-75
2022/03/04 10:20:07;;;;;;;31.50;15.00;;;;;;;2.22;70.90;98667.20;105651;1284;137065;-74
2022/03/04 10:22:42;;;;;;;33.20;14.70;;;;;;;2.34;71.06;98665.58;105734;1283;24396;-75
2022/03/04 10:25:18;;;;;;;33.20;14.50;;;;;;;2.44;71.32;98662.31;105612;1283;137131;-74
2022/03/04 10:27:45;;;;;;;29.70;14.00;;;;;;;2.47;71.15;98664.60;105814;1283;24298;-74
2022/03/04 10:30:12;;;;;;;25.90;12.40;;;;;;;2.53;70.04;98664.41;105696;1283;25510;-74
2022/03/04 10:33:05;;;;;;;28.10;12.80;;;;;;;2.50;69.19;98663.80;105615;1282;137093;-74
2022/03/04 10:35:32;;;;;;;31.80;14.40;;;;;;;2.40;68.75;98660.98;105728;1284;25459;-74
2022/03/04 10:37:58;;;;;;;26.90;13.00;;;;;;;2.31;68.81;98659.05;105550;1284;136967;-75
2022/03/04 10:40:29;;;;;;;29.60;13.60;;;;;;;2.30;68.98;98659.61;105693;1284;22560;-75
2022/03/04 10:43:01;;;;;;;26.90;13.70;;;;;;;2.32;68.83;98662.20;105698;1283;137051;-74
2022/03/04 10:45:30;;;;;;;36.70;14.80;;;;;;;2.41;69.04;98661.45;105735;1282;22639;-75
2022/03/04 10:47:58;;;;;;;39.90;17.70;;;;;;;2.58;70.43;98660.70;105844;1283;24278;-76
2022/03/04 10:50:35;;;;;;;28.20;14.10;;;;;;;2.74;70.46;98659.54;105872;1280;137739;-76
2022/03/04 10:53:05;;;;;;;29.10;12.90;;;;;;;2.86;68.90;98657.55;105705;1280;23071;-76
2022/03/04 10:55:37;;;;;;;26.40;12.50;;;;;;;2.92;67.85;98653.11;105457;1282;137023;-76
2022/03/04 10:58:12;;;;;;;23.60;11.30;;;;;;;2.93;67.43;98654.39;105651;1282;23969;-76
2022/03/04 11:00:38;;;;;;;32.90;12.70;;;;;;;2.96;67.78;98653.14;106065;1281;138060;-76
2022/03/04 11:03:05;;;;;;;27.40;11.40;;;;;;;3.00;67.40;98657.98;105998;1280;22548;-77
2022/03/04 11:05:33;;;;;;;32.00;15.20;;;;;;;3.02;66.68;98655.20;106089;1280;22736;-75
2022/03/04 11:07:59;;;;;;;24.90;11.90;;;;;;;3.01;67.28;98654.94;106065;1280;136956;-78
2022/03/04 11:10:27;;;;;;;28.60;12.30;;;;;;;3.01;66.70;98652.13;105853;1280;25486;-76
2022/03/04 11:12:53;;;;;;;27.90;12.90;;;;;;;2.98;66.27;98651.94;105962;1280;137592;-76
2022/03/04 11:15:24;;;;;;;27.40;12.70;;;;;;;2.98;66.63;98650.52;105384;1279;22785;-76
2022/03/04 11:17:52;;;;;;;22.70;11.40;;;;;;;3.06;66.94;98645.71;105670;1282;23078;-75
2022/03/04 11:20:20;;;;;;;22.20;9.70;;;;;;;3.19;66.71;98644.71;105714;1282;136827;-76
2022/03/04 11:22:50;;;;;;;28.40;12.60;;;;;;;3.25;65.19;98646.27;105839;1282;22578;-76
2022/03/04 11:25:41;;;;;;;25.90;12.10;;;;;;;3.17;64.82;98642.60;105857;1280;137233;-76
2022/03/04 11:28:14;;;;;;;26.30;12.50;;;;;;;3.15;65.32;98641.29;105868;1280;25339;-76
2022/03/04 11:30:46;;;;;;;26.10;12.00;;;;;;;3.13;65.26;98636.51;105784;1280;137380;-76